Time;durP1;ratioP1;P1;durP2;ratioP2;P2;SDS_P1;SDS_P2;PMS_P1;PMS_P2;Temp;Humidity;BMP_temperature;BMP_pressure;BME280_temperature;BME280_humidity;BME280_pressure;Samples;Min_cycle;Max_cycle;Signal;HPM_P1;HPM_P2
2023/05/10 00:02:15;;;;;;;;;;;;;;;9.17;43.55;101127.80;102562;277;92911;-54
2023/05/10 00:04:50;;;;;;;;;;;;;;;9.16;43.52;101120.61;102560;277;97693;-54
2023/05/10 00:07:24;;;;;;;;;;;;;;;9.10;43.55;101117.59;102599;277;118188;-56
2023/05/10 00:10:05;;;;;;;;;;;;;;;9.08;43.75;101117.88;102552;277;104208;-56
2023/05/10 00:12:51;;;;;;;;;;;;;;;9.04;43.69;101118.03;102539;277;112888;-54
2023/05/10 00:15:32;;;;;;;;;;;;;;;9.05;43.78;101113.90;102621;277;91140;-57
2023/05/10 00:18:09;;;;;;;;;;;;;;;9.03;43.69;101111.06;102451;278;96111;-56
2023/05/10 00:20:42;;;;;;;;;;;;;;;9.02;43.69;101109.54;102533;277;118530;-56
2023/05/10 00:23:19;;;;;;;;;;;;;;;9.02;43.75;101104.63;102544;277;104182;-56
2023/05/10 00:25:55;;;;;;;;;;;;;;;9.02;43.68;101105.40;102513;277;111894;-55
2023/05/10 00:28:30;;;;;;;;;;;;;;;8.99;43.75;101100.63;102546;277;91405;-56
2023/05/10 00:31:07;;;;;;;;;;;;;;;8.96;43.69;101099.58;102569;277;98377;-54
2023/05/10 00:33:44;;;;;;;;;;;;;;;8.89;43.72;101097.70;102607;277;118339;-53
2023/05/10 00:36:23;;;;;;;;;;;;;;;8.85;43.80;101097.21;102578;277;105867;-54
2023/05/10 00:39:03;;;;;;;;;;;;;;;8.87;43.84;101096.17;102470;278;113702;-54
2023/05/10 00:41:39;;;;;;;;;;;;;;;8.86;43.66;101092.63;102576;277;93481;-56
2023/05/10 00:44:25;;;;;;;;;;;;;;;8.85;43.86;101093.66;102557;277;97832;-56
2023/05/10 00:46:59;;;;;;;;;;;;;;;8.82;43.85;101088.27;102577;277;118342;-56
2023/05/10 00:49:37;;;;;;;;;;;;;;;8.80;43.70;101093.08;102345;277;105434;-55
2023/05/10 00:52:15;;;;;;;;;;;;;;;8.75;43.79;101093.08;102530;277;114197;-56
2023/05/10 00:54:48;;;;;;;;;;;;;;;8.73;43.85;101092.30;102514;277;92762;-56
2023/05/10 00:57:22;;;;;;;;;;;;;;;8.74;43.90;101093.81;102554;277;96682;-54
2023/05/10 01:00:04;;;;;;;;;;;;;;;8.70;43.91;101091.52;102531;277;118562;-53
2023/05/10 01:02:50;;;;;;;;;;;;;;;8.67;43.88;101088.20;102587;277;104138;-53
2023/05/10 01:05:38;;;;;;;;;;;;;;;8.65;43.92;101082.75;102545;277;113106;-56
2023/05/10 01:08:14;;;;;;;;;;;;;;;8.61;44.03;101084.59;102553;277;92246;-56
2023/05/10 01:10:52;;;;;;;;;;;;;;;8.61;44.06;101087.41;102579;277;96350;-54
2023/05/10 01:13:34;;;;;;;;;;;;;;;8.64;44.00;101088.52;102578;277;119555;-54
2023/05/10 01:16:07;;;;;;;;;;;;;;;8.64;43.88;101082.08;102573;277;106429;-56
2023/05/10 01:18:44;;;;;;;;;;;;;;;8.62;43.80;101081.95;102554;277;112449;-55
2023/05/10 01:21:34;;;;;;;;;;;;;;;8.60;43.84;101079.13;102576;277;92921;-53
2023/05/10 01:24:42;;;;;;;;;;;;;;;8.60;43.81;101077.47;102611;277;98002;-53
2023/05/10 01:27:39;;;;;;;;;;;;;;;8.54;43.88;101077.17;102508;278;119214;-54
2023/05/10 01:30:51;;;;;;;;;;;;;;;8.48;43.95;101081.79;102311;279;103806;-55
2023/05/10 01:33:31;;;;;;;;;;;;;;;8.42;44.02;101080.52;102394;277;114062;-56
2023/05/10 01:36:14;;;;;;;;;;;;;;;8.42;44.08;101078.68;102527;277;93248;-54
2023/05/10 01:38:52;;;;;;;;;;;;;;;8.40;44.07;101074.04;102399;279;96809;-54
2023/05/10 01:41:31;;;;;;;;;;;;;;;8.38;44.07;101073.70;102604;277;119136;-56
2023/05/10 01:44:06;;;;;;;;;;;;;;;8.34;44.13;101075.77;102580;277;104471;-56
2023/05/10 01:46:43;;;;;;;;;;;;;;;8.37;44.24;101077.98;102541;277;114074;-54
2023/05/10 01:49:23;;;;;;;;;;;;;;;8.37;44.00;101070.84;102584;266;93317;-54
2023/05/10 01:52:07;;;;;;;;;;;;;;;8.28;44.16;101063.58;102585;277;95373;-56
2023/05/10 01:54:42;;;;;;;;;;;;;;;8.22;44.33;101064.42;102542;278;119542;-56
2023/05/10 01:57:18;;;;;;;;;;;;;;;8.18;44.29;101064.77;102608;277;104170;-56
2023/05/10 01:59:53;;;;;;;;;;;;;;;8.13;44.52;101062.45;102507;277;114548;-55
2023/05/10 02:02:28;;;;;;;;;;;;;;;8.09;44.54;101059.28;102583;270;93789;-58
2023/05/10 02:05:01;;;;;;;;;;;;;;;8.07;44.64;101057.22;102560;277;97636;-57
2023/05/10 02:07:35;;;;;;;;;;;;;;;8.07;44.85;101057.69;102579;277;120197;-54
2023/05/10 02:10:12;;;;;;;;;;;;;;;8.05;44.81;101056.80;102562;277;105674;-56
2023/05/10 02:12:49;;;;;;;;;;;;;;;7.99;44.75;101054.80;102598;277;113455;-56
2023/05/10 02:15:29;;;;;;;;;;;;;;;7.94;44.86;101058.77;102618;277;93901;-56
2023/05/10 02:18:06;;;;;;;;;;;;;;;7.90;45.03;101057.02;102592;277;95703;-56
2023/05/10 02:20:40;;;;;;;;;;;;;;;7.86;45.01;101057.19;102045;277;655194;-56
2023/05/10 02:23:19;;;;;;;;;;;;;;;7.83;45.35;101053.19;102601;277;103825;-55
2023/05/10 02:25:56;;;;;;;;;;;;;;;7.82;45.28;101050.98;102576;277;113658;-52
2023/05/10 02:28:39;;;;;;;;;;;;;;;7.77;45.57;101053.98;102554;277;93379;-52
2023/05/10 02:31:16;;;;;;;;;;;;;;;7.75;46.01;101052.59;102489;277;95719;-56
2023/05/10 02:33:52;;;;;;;;;;;;;;;7.74;45.99;101051.09;102487;277;118237;-56
2023/05/10 02:36:29;;;;;;;;;;;;;;;7.72;45.99;101048.59;102559;277;104166;-55
2023/05/10 02:39:09;;;;;;;;;;;;;;;7.72;46.16;101049.67;102575;277;114273;-55
2023/05/10 02:41:53;;;;;;;;;;;;;;;7.72;46.25;101051.78;102609;277;91425;-55
2023/05/10 02:44:31;;;;;;;;;;;;;;;7.70;46.37;101051.23;102624;277;97095;-56
2023/05/10 02:47:08;;;;;;;;;;;;;;;7.67;46.22;101054.31;102570;277;119680;-53
2023/05/10 02:49:44;;;;;;;;;;;;;;;7.62;46.45;101056.61;102630;277;103953;-53
2023/05/10 02:52:23;;;;;;;;;;;;;;;7.58;46.55;101059.50;102434;278;113481;-53
2023/05/10 02:55:03;;;;;;;;;;;;;;;7.55;46.61;101061.82;102608;277;92227;-54
2023/05/10 02:57:40;;;;;;;;;;;;;;;7.51;46.73;101063.97;102587;277;97781;-53
2023/05/10 03:00:18;;;;;;;;;;;;;;;7.50;46.81;101062.78;102596;277;119073;-53
2023/05/10 03:02:52;;;;;;;;;;;;;;;7.50;47.29;101064.96;102677;277;104607;-54
2023/05/10 03:05:28;;;;;;;;;;;;;;;7.51;47.32;101062.16;102617;277;115684;-54
2023/05/10 03:08:04;;;;;;;;;;;;;;;7.53;47.24;101063.08;102651;277;94318;-56
2023/05/10 03:10:44;;;;;;;;;;;;;;;7.54;47.13;101063.52;102632;277;98125;-57
2023/05/10 03:13:28;;;;;;;;;;;;;;;7.53;47.39;101062.73;102566;277;119026;-56
2023/05/10 03:16:08;;;;;;;;;;;;;;;7.53;47.36;101064.46;102619;277;103460;-53
2023/05/10 03:18:45;;;;;;;;;;;;;;;7.54;47.46;101058.82;102563;277;113398;-54
2023/05/10 03:21:19;;;;;;;;;;;;;;;7.58;47.81;101062.32;102558;277;93598;-56
2023/05/10 03:23:56;;;;;;;;;;;;;;;7.60;47.70;101058.91;102563;277;97279;-57
2023/05/10 03:26:36;;;;;;;;;;;;;;;7.64;47.65;101057.81;102512;277;116807;-57
2023/05/10 03:29:14;;;;;;;;;;;;;;;7.66;47.49;101059.81;102417;277;105138;-54
2023/05/10 03:31:48;;;;;;;;;;;;;;;7.69;47.51;101059.47;102573;277;115021;-53
2023/05/10 03:34:31;;;;;;;;;;;;;;;7.75;47.72;101061.75;102550;277;93892;-53
2023/05/10 03:37:06;;;;;;;;;;;;;;;7.86;47.54;101061.09;102603;277;97930;-54
2023/05/10 03:39:42;;;;;;;;;;;;;;;8.39;47.40;101058.92;102513;277;119084;-54
2023/05/10 03:42:19;;;;;;;;;;;;;;;9.46;46.74;101055.84;102694;277;103379;-54
2023/05/10 03:44:55;;;;;;;;;;;;;;;10.78;45.82;101051.40;102554;267;113305;-53
2023/05/10 03:47:32;;;;;;;;;;;;;;;12.29;44.74;101040.88;102549;277;91632;-57
2023/05/10 03:50:07;;;;;;;;;;;;;;;13.71;42.62;101039.23;102766;277;96713;-54
2023/05/10 03:52:42;;;;;;;;;;;;;;;14.84;41.17;101029.58;102778;276;120169;-51
2023/05/10 03:55:20;;;;;;;;;;;;;;;15.85;39.83;101028.52;102804;277;104093;-56
2023/05/10 03:57:59;;;;;;;;;;;;;;;16.95;38.38;101027.65;102750;277;114506;-57
2023/05/10 04:00:33;;;;;;;;;;;;;;;17.47;37.09;101028.23;102737;277;93500;-54
2023/05/10 04:03:07;;;;;;;;;;;;;;;17.87;36.12;101027.40;102748;277;96497;-54
2023/05/10 04:05:44;;;;;;;;;;;;;;;18.43;35.19;101025.91;102689;277;119101;-54
2023/05/10 04:08:22;;;;;;;;;;;;;;;18.26;34.15;101028.55;102733;277;105086;-54
2023/05/10 04:11:05;;;;;;;;;;;;;;;16.87;33.81;101036.84;102700;277;114475;-54
2023/05/10 04:13:39;;;;;;;;;;;;;;;15.15;34.70;101040.76;102728;277;94565;-53
2023/05/10 04:16:15;;;;;;;;;;;;;;;14.09;35.51;101040.51;102776;277;96184;-53
2023/05/10 04:18:49;;;;;;;;;;;;;;;13.39;36.08;101050.96;102738;265;119558;-54
2023/05/10 04:21:24;;;;;;;;;;;;;;;12.98;36.78;101052.63;102752;277;106162;-54
2023/05/10 04:23:57;;;;;;;;;;;;;;;12.62;37.28;101052.48;102723;277;114603;-54
2023/05/10 04:26:42;;;;;;;;;;;;;;;12.25;37.82;101051.89;102713;277;94850;-56
2023/05/10 04:29:20;;;;;;;;;;;;;;;11.92;38.42;101052.05;102781;277;96977;-57
2023/05/10 04:31:56;;;;;;;;;;;;;;;11.65;38.86;101054.48;102786;277;118284;-53
2023/05/10 04:34:31;;;;;;;;;;;;;;;11.50;39.10;101055.15;102754;277;104419;-54
2023/05/10 04:37:04;;;;;;;;;;;;;;;11.48;39.52;101059.81;102778;277;112139;-57
2023/05/10 04:39:42;;;;;;;;;;;;;;;11.51;39.84;101063.42;102789;277;93614;-58
2023/05/10 04:42:19;;;;;;;;;;;;;;;11.96;39.74;101057.94;102754;277;96767;-57
2023/05/10 04:44:55;;;;;;;;;;;;;;;12.76;39.53;101061.31;102773;276;119035;-57
2023/05/10 04:47:29;;;;;;;;;;;;;;;14.77;38.88;101051.84;102766;277;105248;-54
2023/05/10 04:50:04;;;;;;;;;;;;;;;17.48;37.08;101047.19;102750;277;113020;-54
2023/05/10 04:52:38;;;;;;;;;;;;;;;19.30;34.90;101040.84;102736;277;93477;-56
2023/05/10 04:55:11;;;;;;;;;;;;;;;20.89;33.16;101039.27;102735;277;96339;-56
2023/05/10 04:57:44;;;;;;;;;;;;;;;22.21;32.18;101035.27;102740;277;119115;-54
2023/05/10 05:00:18;;;;;;;;;;;;;;;23.38;30.59;101033.63;102756;277;104676;-57
2023/05/10 05:02:57;;;;;;;;;;;;;;;24.17;29.66;101036.06;102698;277;114585;-58
2023/05/10 05:05:33;;;;;;;;;;;;;;;24.96;28.92;101031.63;102720;277;94157;-56
2023/05/10 05:08:07;;;;;;;;;;;;;;;25.67;27.80;101034.68;102745;276;97270;-58
2023/05/10 05:10:42;;;;;;;;;;;;;;;25.89;27.14;101030.35;102754;276;119793;-56
2023/05/10 05:13:18;;;;;;;;;;;;;;;26.35;25.72;101027.23;102733;277;103196;-55
2023/05/10 05:15:52;;;;;;;;;;;;;;;26.51;24.85;101027.64;102772;276;114536;-59
2023/05/10 05:18:36;;;;;;;;;;;;;;;26.82;24.81;101028.78;102753;276;94344;-57
2023/05/10 05:21:19;;;;;;;;;;;;;;;27.00;24.27;101024.89;102740;276;96481;-57
2023/05/10 05:23:54;;;;;;;;;;;;;;;26.87;23.42;101023.59;102579;277;118549;-58
2023/05/10 05:26:31;;;;;;;;;;;;;;;27.25;23.85;101025.91;102778;276;105779;-57
2023/05/10 05:29:09;;;;;;;;;;;;;;;27.84;22.89;101026.20;102767;276;113716;-59
2023/05/10 05:31:42;;;;;;;;;;;;;;;28.29;22.42;101026.00;102764;276;91948;-58
2023/05/10 05:34:16;;;;;;;;;;;;;;;28.62;22.54;101022.18;102765;276;97859;-56
2023/05/10 05:36:49;;;;;;;;;;;;;;;28.88;22.17;101022.36;102745;276;118646;-58
2023/05/10 05:39:23;;;;;;;;;;;;;;;29.17;22.22;101022.95;102537;276;105972;-58
2023/05/10 05:42:05;;;;;;;;;;;;;;;29.57;20.85;101027.45;102719;277;113243;-59
2023/05/10 05:44:41;;;;;;;;;;;;;;;29.45;20.46;101030.02;102694;277;92524;-58
2023/05/10 05:47:16;;;;;;;;;;;;;;;29.70;20.70;101032.00;102776;277;96284;-56
2023/05/10 05:49:53;;;;;;;;;;;;;;;29.56;20.02;101031.70;102722;276;120517;-58
2023/05/10 05:52:31;;;;;;;;;;;;;;;29.28;19.65;101029.29;102694;277;105032;-57
2023/05/10 05:55:06;;;;;;;;;;;;;;;28.81;19.40;101026.00;102734;277;112901;-58
2023/05/10 05:57:42;;;;;;;;;;;;;;;28.85;20.28;101023.61;102770;277;93003;-58
2023/05/10 06:00:16;;;;;;;;;;;;;;;29.28;19.95;101029.19;102708;277;98090;-56
2023/05/10 06:02:50;;;;;;;;;;;;;;;29.15;19.48;101030.61;102719;277;118189;-54
2023/05/10 06:05:27;;;;;;;;;;;;;;;29.03;19.39;101034.86;102749;277;106000;-55
2023/05/10 06:08:01;;;;;;;;;;;;;;;28.82;18.94;101030.98;102735;277;114717;-55
2023/05/10 06:10:38;;;;;;;;;;;;;;;28.75;19.19;101029.00;102763;277;93215;-58
2023/05/10 06:13:11;;;;;;;;;;;;;;;29.30;19.13;101032.21;102752;277;97928;-56
2023/05/10 06:15:48;;;;;;;;;;;;;;;29.44;18.67;101034.82;102773;277;120229;-59
2023/05/10 06:18:26;;;;;;;;;;;;;;;29.60;19.34;101035.77;102740;277;104483;-60
2023/05/10 06:20:58;;;;;;;;;;;;;;;29.89;19.07;101036.36;102786;277;113681;-56
2023/05/10 06:23:31;;;;;;;;;;;;;;;29.95;18.54;101032.99;102743;277;93426;-55
2023/05/10 06:26:10;;;;;;;;;;;;;;;30.20;18.95;101036.09;102766;277;98184;-59
2023/05/10 06:28:46;;;;;;;;;;;;;;;30.25;18.56;101033.44;102707;277;120656;-58
2023/05/10 06:31:20;;;;;;;;;;;;;;;30.15;18.70;101030.86;102761;277;104284;-59
2023/05/10 06:33:53;;;;;;;;;;;;;;;30.86;19.11;101025.60;102727;277;114232;-63
2023/05/10 06:36:27;;;;;;;;;;;;;;;31.04;18.50;101025.27;102723;277;95105;-60
2023/05/10 06:39:01;;;;;;;;;;;;;;;31.49;18.54;101026.66;102719;277;95462;-60
2023/05/10 06:41:34;;;;;;;;;;;;;;;31.68;18.48;101027.30;102712;277;120096;-61
2023/05/10 06:44:12;;;;;;;;;;;;;;;31.80;17.47;101030.35;102715;277;105199;-61
2023/05/10 06:46:46;;;;;;;;;;;;;;;31.61;17.79;101026.27;102744;277;114850;-61
2023/05/10 06:49:21;;;;;;;;;;;;;;;31.54;18.20;101022.69;102509;277;94277;-59
2023/05/10 06:51:57;;;;;;;;;;;;;;;31.38;17.80;101023.89;102560;277;97279;-58
2023/05/10 06:54:33;;;;;;;;;;;;;;;31.62;17.86;101024.57;102523;278;120782;-60
2023/05/10 06:57:07;;;;;;;;;;;;;;;31.36;17.46;101025.20;102778;277;106160;-59
2023/05/10 06:59:40;;;;;;;;;;;;;;;31.38;17.98;101022.47;102713;277;114021;-62
2023/05/10 07:02:16;;;;;;;;;;;;;;;31.63;17.88;101022.77;102574;277;93541;-59
2023/05/10 07:04:54;;;;;;;;;;;;;;;31.91;17.56;101023.89;102766;277;97727;-64
2023/05/10 07:07:29;;;;;;;;;;;;;;;31.83;17.63;101023.19;102771;277;120494;-65
2023/05/10 07:10:05;;;;;;;;;;;;;;;32.19;17.37;101024.52;102776;277;105603;-65
2023/05/10 07:12:40;;;;;;;;;;;;;;;31.76;17.20;101022.23;102748;277;114142;-57
2023/05/10 07:15:13;;;;;;;;;;;;;;;31.82;16.77;101023.56;102740;277;93927;-58
2023/05/10 07:17:52;;;;;;;;;;;;;;;31.10;16.74;101021.30;102540;277;98586;-58
2023/05/10 07:20:28;;;;;;;;;;;;;;;31.05;17.38;101015.67;102757;277;119376;-57
2023/05/10 07:23:01;;;;;;;;;;;;;;;31.29;17.21;101014.96;102748;277;106288;-57
2023/05/10 07:25:34;;;;;;;;;;;;;;;31.31;17.70;101013.67;102787;277;113086;-59
2023/05/10 07:28:07;;;;;;;;;;;;;;;31.42;17.18;101018.02;102723;277;94979;-61
2023/05/10 07:30:44;;;;;;;;;;;;;;;30.91;16.46;101017.90;102777;277;97283;-59
2023/05/10 07:33:17;;;;;;;;;;;;;;;30.19;16.50;101027.52;102730;277;120802;-58
2023/05/10 07:35:51;;;;;;;;;;;;;;;30.26;17.04;101023.23;102739;277;104870;-58
2023/05/10 07:38:27;;;;;;;;;;;;;;;29.98;16.73;101026.23;102735;277;114490;-58
2023/05/10 07:41:03;;;;;;;;;;;;;;;29.87;17.31;101022.73;102737;277;94564;-57
2023/05/10 07:43:36;;;;;;;;;;;;;;;30.00;16.93;101020.36;102764;277;96480;-57
2023/05/10 07:46:09;;;;;;;;;;;;;;;28.94;16.77;101024.44;102742;277;119898;-58
2023/05/10 07:48:42;;;;;;;;;;;;;;;28.61;16.70;101026.08;102731;277;105466;-56
2023/05/10 07:51:18;;;;;;;;;;;;;;;27.85;16.65;101022.71;102703;277;114296;-60
2023/05/10 07:53:57;;;;;;;;;;;;;;;28.04;17.08;101014.25;102825;277;93917;-59
2023/05/10 07:56:37;;;;;;;;;;;;;;;28.10;17.38;101017.23;102753;277;96361;-56
2023/05/10 07:59:10;;;;;;;;;;;;;;;28.37;17.02;101022.58;102534;277;120212;-57
2023/05/10 08:01:44;;;;;;;;;;;;;;;27.93;16.18;101021.20;102726;277;106180;-56
2023/05/10 08:04:23;;;;;;;;;;;;;;;27.74;16.65;101018.77;102716;265;113135;-56
2023/05/10 08:06:59;;;;;;;;;;;;;;;27.92;16.98;101013.48;102743;277;93439;-59
2023/05/10 08:09:35;;;;;;;;;;;;;;;27.74;16.33;101015.77;102748;277;96209;-59
2023/05/10 08:12:08;;;;;;;;;;;;;;;27.49;16.67;101015.27;102771;277;120423;-57
2023/05/10 08:14:45;;;;;;;;;;;;;;;27.31;16.70;101012.12;102574;277;105010;-57
2023/05/10 08:17:17;;;;;;;;;;;;;;;27.17;17.08;101015.02;102727;277;114682;-57
2023/05/10 08:19:50;;;;;;;;;;;;;;;26.58;16.83;101019.48;102748;277;93506;-58
2023/05/10 08:22:28;;;;;;;;;;;;;;;26.63;17.64;101001.80;102815;277;96178;-56
2023/05/10 08:25:03;;;;;;;;;;;;;;;26.96;17.60;101005.61;102799;276;119739;-56
2023/05/10 08:27:42;;;;;;;;;;;;;;;26.88;17.20;100995.94;102736;277;104382;-53
2023/05/10 08:30:22;;;;;;;;;;;;;;;26.73;17.30;101002.11;102776;277;114446;-55
2023/05/10 08:33:02;;;;;;;;;;;;;;;26.39;17.40;101004.39;102738;277;92571;-56
2023/05/10 08:35:40;;;;;;;;;;;;;;;26.46;17.75;101006.71;102533;277;97174;-56
2023/05/10 08:38:13;;;;;;;;;;;;;;;26.75;17.54;101007.99;102751;277;121584;-57
2023/05/10 08:40:56;;;;;;;;;;;;;;;26.45;17.24;101010.27;102755;277;105129;-58
2023/05/10 08:43:31;;;;;;;;;;;;;;;26.19;17.40;101010.66;102702;276;114872;-58
2023/05/10 08:46:06;;;;;;;;;;;;;;;26.23;17.13;101013.43;102729;277;94033;-60
2023/05/10 08:48:42;;;;;;;;;;;;;;;26.07;17.38;101010.27;102751;276;94882;-58
2023/05/10 08:51:19;;;;;;;;;;;;;;;26.15;17.53;101014.81;102530;278;121482;-56
2023/05/10 08:53:55;;;;;;;;;;;;;;;26.00;17.06;101003.48;102765;276;105408;-55
2023/05/10 08:56:31;;;;;;;;;;;;;;;25.49;17.34;101009.00;102703;276;114871;-58
2023/05/10 08:59:10;;;;;;;;;;;;;;;25.64;17.61;101009.83;102740;277;94350;-54
2023/05/10 09:01:50;;;;;;;;;;;;;;;25.11;17.37;101011.07;102763;276;98403;-58
2023/05/10 09:04:27;;;;;;;;;;;;;;;24.21;17.91;101005.80;102767;276;120310;-58
2023/05/10 09:07:01;;;;;;;;;;;;;;;24.33;18.44;100999.70;102738;276;106710;-56
2023/05/10 09:09:46;;;;;;;;;;;;;;;24.07;18.31;101002.97;102714;277;114235;-58
2023/05/10 09:12:25;;;;;;;;;;;;;;;23.43;18.66;100999.08;102754;276;95459;-57
2023/05/10 09:15:09;;;;;;;;;;;;;;;23.14;19.12;100986.92;102734;276;97018;-56
2023/05/10 09:17:45;;;;;;;;;;;;;;;22.61;19.51;101003.44;102480;277;119989;-58
2023/05/10 09:20:22;;;;;;;;;;;;;;;21.69;19.85;101000.52;102700;277;104048;-56
2023/05/10 09:22:55;;;;;;;;;;;;;;;21.34;20.45;100993.06;102704;276;113419;-57
2023/05/10 09:25:33;;;;;;;;;;;;;;;21.01;20.63;101002.80;102749;277;92882;-57
2023/05/10 09:28:10;;;;;;;;;;;;;;;20.69;21.10;100993.98;102563;278;97107;-57
2023/05/10 09:30:43;;;;;;;;;;;;;;;20.64;21.53;100988.47;102788;277;121332;-59
2023/05/10 09:33:19;;;;;;;;;;;;;;;20.78;21.58;100987.73;102759;277;106303;-59
2023/05/10 09:36:07;;;;;;;;;;;;;;;20.92;21.47;100982.23;102742;277;114464;-58
2023/05/10 09:38:53;;;;;;;;;;;;;;;20.80;21.95;100993.44;102740;277;94848;-58
2023/05/10 09:41:34;;;;;;;;;;;;;;;20.77;22.08;100997.71;102751;277;98262;-56
2023/05/10 09:44:11;;;;;;;;;;;;;;;20.75;22.35;100993.71;102540;277;120296;-58
2023/05/10 09:46:52;;;;;;;;;;;;;;;20.80;22.21;100993.18;102771;277;104755;-57
2023/05/10 09:49:25;;;;;;;;;;;;;;;20.44;22.09;100994.17;102758;277;113528;-57
2023/05/10 09:52:09;;;;;;;;;;;;;;;20.32;22.52;100988.25;102537;278;94851;-57
2023/05/10 09:54:47;;;;;;;;;;;;;;;20.42;22.45;100986.44;102550;278;97215;-57
2023/05/10 09:57:25;;;;;;;;;;;;;;;20.57;22.76;100987.23;102724;277;120188;-57
2023/05/10 10:00:04;;;;;;;;;;;;;;;20.59;22.65;100986.84;102747;277;104141;-57
2023/05/10 10:02:43;;;;;;;;;;;;;;;20.50;22.62;100979.27;102739;277;113916;-58
2023/05/10 10:05:20;;;;;;;;;;;;;;;20.65;22.87;100988.06;102565;277;92911;-58
2023/05/10 10:07:57;;;;;;;;;;;;;;;20.40;22.67;100977.40;102746;277;96849;-58
2023/05/10 10:10:34;;;;;;;;;;;;;;;20.24;23.17;100968.17;102773;277;120184;-57
2023/05/10 10:13:13;;;;;;;;;;;;;;;20.22;23.27;100965.23;102824;277;105545;-56
2023/05/10 10:15:50;;;;;;;;;;;;;;;20.13;22.92;100973.55;102737;277;114849;-58
2023/05/10 10:18:28;;;;;;;;;;;;;;;19.80;22.97;100968.23;102519;277;93696;-58
2023/05/10 10:21:05;;;;;;;;;;;;;;;19.94;23.38;100963.55;102302;277;437593;-57
2023/05/10 10:23:41;;;;;;;;;;;;;;;20.03;23.33;100966.21;102740;277;121208;-57
2023/05/10 10:26:18;;;;;;;;;;;;;;;20.13;23.70;100956.46;102543;277;104611;-59
2023/05/10 10:29:12;;;;;;;;;;;;;;;20.20;23.47;100960.94;102737;277;114685;-58
2023/05/10 10:31:53;;;;;;;;;;;;;;;19.97;23.07;100952.52;102748;277;93147;-57
2023/05/10 10:34:29;;;;;;;;;;;;;;;19.89;23.28;100955.79;102729;277;96468;-56
2023/05/10 10:37:07;;;;;;;;;;;;;;;19.80;23.36;100948.71;102775;277;119161;-58
2023/05/10 10:39:42;;;;;;;;;;;;;;;19.92;23.30;100947.88;102744;277;104348;-57
2023/05/10 10:42:51;;;;;;;;;;;;;;;19.95;23.64;100946.23;102759;277;113158;-56
2023/05/10 10:45:27;;;;;;;;;;;;;;;19.79;23.61;100956.19;102663;277;94037;-57
2023/05/10 10:48:23;;;;;;;;;;;;;;;19.57;23.77;100944.50;102800;277;96350;-58
2023/05/10 10:51:00;;;;;;;;;;;;;;;19.72;23.88;100950.25;102792;277;120778;-58
2023/05/10 10:53:33;;;;;;;;;;;;;;;19.72;23.59;100943.63;102783;277;104548;-58
2023/05/10 10:56:14;;;;;;;;;;;;;;;19.80;23.72;100935.73;102751;277;114877;-58
2023/05/10 10:58:53;;;;;;;;;;;;;;;19.75;23.68;100933.08;102711;277;93698;-57
2023/05/10 11:01:34;;;;;;;;;;;;;;;19.71;23.99;100935.05;102751;277;97494;-56
2023/05/10 11:04:46;;;;;;;;;;;;;;;19.61;24.31;100923.48;102712;277;119985;-56
2023/05/10 11:07:24;;;;;;;;;;;;;;;19.75;24.34;100918.39;102566;278;104946;-59
2023/05/10 11:10:08;;;;;;;;;;;;;;;19.71;23.66;100932.26;102551;278;113015;-59
2023/05/10 11:13:01;;;;;;;;;;;;;;;19.57;23.86;100929.92;102559;278;93078;-58
2023/05/10 11:15:41;;;;;;;;;;;;;;;19.41;23.67;100928.90;102550;278;97598;-58
2023/05/10 11:18:30;;;;;;;;;;;;;;;19.33;23.87;100920.51;102521;279;120237;-59
2023/05/10 11:21:10;;;;;;;;;;;;;;;19.34;23.94;100924.05;102545;279;103668;-56
2023/05/10 11:23:55;;;;;;;;;;;;;;;19.26;24.15;100919.65;102543;278;113865;-57
2023/05/10 11:26:33;;;;;;;;;;;;;;;19.32;24.03;100920.95;102525;279;95108;-58
2023/05/10 11:29:08;;;;;;;;;;;;;;;19.02;23.89;100915.05;102561;279;97859;-58
2023/05/10 11:31:47;;;;;;;;;;;;;;;18.86;23.86;100917.23;102571;278;120519;-59
2023/05/10 11:34:33;;;;;;;;;;;;;;;18.75;24.00;100910.41;102493;279;105857;-58
2023/05/10 11:37:11;;;;;;;;;;;;;;;18.81;24.27;100917.16;102513;278;112993;-56
2023/05/10 11:39:49;;;;;;;;;;;;;;;18.85;24.25;100919.17;102528;279;93156;-56
2023/05/10 11:42:26;;;;;;;;;;;;;;;18.83;24.39;100918.91;102549;279;97546;-59
2023/05/10 11:45:05;;;;;;;;;;;;;;;18.82;24.36;100914.21;102509;278;118767;-59
2023/05/10 11:47:43;;;;;;;;;;;;;;;18.66;24.57;100915.83;102527;279;105573;-58
2023/05/10 11:50:21;;;;;;;;;;;;;;;18.63;24.83;100911.08;102510;278;113562;-57
2023/05/10 11:52:58;;;;;;;;;;;;;;;18.60;24.71;100910.61;102582;267;93229;-56
2023/05/10 11:55:34;;;;;;;;;;;;;;;18.65;24.91;100906.39;102579;279;98417;-58
2023/05/10 11:58:18;;;;;;;;;;;;;;;18.70;25.31;100901.98;102573;279;120476;-57
2023/05/10 12:01:00;;;;;;;;;;;;;;;18.77;25.04;100908.92;102484;279;105301;-57
2023/05/10 12:03:37;;;;;;;;;;;;;;;18.70;25.05;100914.77;102516;279;113603;-64
2023/05/10 12:06:11;;;;;;;;;;;;;;;18.71;25.41;100912.03;102685;277;93267;-55
2023/05/10 12:08:47;;;;;;;;;;;;;;;18.76;25.40;100898.61;102783;277;98181;-62
2023/05/10 12:11:26;;;;;;;;;;;;;;;18.76;25.63;100899.97;102783;276;120296;-56
2023/05/10 12:14:06;;;;;;;;;;;;;;;18.77;25.76;100905.04;102780;277;105614;-56
2023/05/10 12:16:45;;;;;;;;;;;;;;;18.77;25.71;100900.62;102755;277;115101;-58
2023/05/10 12:19:22;;;;;;;;;;;;;;;18.63;25.57;100900.52;102749;277;93609;-51
2023/05/10 12:21:59;;;;;;;;;;;;;;;18.55;25.39;100899.36;102755;277;98126;-57
2023/05/10 12:24:39;;;;;;;;;;;;;;;18.48;25.70;100905.66;102755;276;119894;-56
2023/05/10 12:27:16;;;;;;;;;;;;;;;18.49;25.66;100903.70;102734;276;104987;-56
2023/05/10 12:29:49;;;;;;;;;;;;;;;18.42;25.67;100902.50;102509;277;114331;-56
2023/05/10 12:32:38;;;;;;;;;;;;;;;18.42;25.61;100900.14;102748;277;92341;-54
2023/05/10 12:35:13;;;;;;;;;;;;;;;18.38;25.69;100896.80;102776;277;97211;-54
2023/05/10 12:37:48;;;;;;;;;;;;;;;18.40;25.52;100902.81;102759;276;120080;-55
2023/05/10 12:40:22;;;;;;;;;;;;;;;18.42;25.55;100896.37;102784;277;105144;-54
2023/05/10 12:43:01;;;;;;;;;;;;;;;18.41;25.61;100894.90;102764;277;113558;-62
2023/05/10 12:45:41;;;;;;;;;;;;;;;18.37;26.01;100901.51;102773;276;94369;-58
2023/05/10 12:48:17;;;;;;;;;;;;;;;18.31;25.99;100899.55;102787;276;96915;-57
2023/05/10 12:50:51;;;;;;;;;;;;;;;18.19;26.10;100900.10;102785;277;119694;-56
2023/05/10 12:53:24;;;;;;;;;;;;;;;18.10;26.03;100894.32;102751;276;104430;-57
2023/05/10 12:56:06;;;;;;;;;;;;;;;18.04;26.21;100891.42;102800;276;113847;-57
2023/05/10 12:58:39;;;;;;;;;;;;;;;18.07;25.96;100882.35;102723;277;92853;-56
2023/05/10 13:01:17;;;;;;;;;;;;;;;18.08;25.91;100870.02;102766;277;95288;-56
2023/05/10 13:03:52;;;;;;;;;;;;;;;18.13;26.23;100879.04;102730;276;119971;-58
2023/05/10 13:06:27;;;;;;;;;;;;;;;18.17;26.22;100885.45;102725;277;104440;-58
2023/05/10 13:09:07;;;;;;;;;;;;;;;18.13;26.10;100877.33;102767;276;114790;-55
2023/05/10 13:11:41;;;;;;;;;;;;;;;18.18;26.37;100878.74;102707;277;94369;-58
2023/05/10 13:14:20;;;;;;;;;;;;;;;18.21;26.30;100879.02;102747;277;96660;-57
2023/05/10 13:16:59;;;;;;;;;;;;;;;18.18;26.08;100874.58;102769;277;119523;-55
2023/05/10 13:19:34;;;;;;;;;;;;;;;18.11;26.13;100874.27;102771;277;105542;-55
2023/05/10 13:22:11;;;;;;;;;;;;;;;18.12;26.22;100875.41;102495;277;114443;-57
2023/05/10 13:24:50;;;;;;;;;;;;;;;18.09;26.50;100877.22;102690;277;93357;-55
2023/05/10 13:27:28;;;;;;;;;;;;;;;18.06;26.61;100872.98;102745;277;96495;-57